KBBP

Marlboro County Jetport - H E Avent Field Airport

Bennettsville, South Carolina, USA
METAR KBBP 181435Z AUTO 27006KT 10SM OVC015 26/23 A3005 RMK AO2
Observed Flight Rules
Aug-18 @ 14:35 UTC (18 minutes ago) Marginal Visual Flight Rules
Wind Visibility Clouds
270° at 6 knots 10 miles
  • Overcast at 1,500' AGL
Temperatures Readings
Current 26°C / 79°F
Dewpoint 23°C / 73°F
Humidity 84%
Altimeter 30.05" Hg
Pressure 1018 hPa
Elevation 45
METAR KBBP 181435Z AUTO 27006KT 10SM OVC015 26/23 A3005 RMK AO2
Observed Flight Rules
Aug-18 @ 14:35 UTC
(18 minutes ago)
MVFR
Wind Visibility
270° at 6 knots 10 miles
Clouds
  • Overcast at 1,500' AGL
Temperature Dewpoint
26°C / 79°F 23°C / 73°F
Humidity Altimeter Pressure
84% 30.05" Hg 1018 hPa